Time;durP1;ratioP1;P1;durP2;ratioP2;P2;SDS_P1;SDS_P2;PMS_P1;PMS_P2;Temp;Humidity;BMP_temperature;BMP_pressure;BME280_temperature;BME280_humidity;BME280_pressure;Samples;Min_cycle;Max_cycle;Signal;HPM_P1;HPM_P2
2022/05/19 00:02:00;;;;;;;4.03;1.92;;;12.60;91.20;;;;;;5050652;28;20244;-88
2022/05/19 00:04:29;;;;;;;2.53;2.20;;;12.60;91.30;;;;;;5050526;28;20240;-88
2022/05/19 00:06:57;;;;;;;2.20;2.00;;;12.60;91.90;;;;;;5050210;28;20206;-88
2022/05/19 00:09:26;;;;;;;2.13;1.83;;;12.60;91.70;;;;;;5051006;28;20210;-88
2022/05/19 00:11:56;;;;;;;5.57;1.92;;;12.60;92.90;;;;;;5050727;28;20209;-88
2022/05/19 00:14:24;;;;;;;2.35;2.00;;;12.60;92.80;;;;;;5050695;28;20229;-87
2022/05/19 00:16:56;;;;;;;2.08;1.95;;;12.50;93.00;;;;;;5050293;28;20261;-88
2022/05/19 00:19:27;;;;;;;2.20;1.92;;;12.50;93.60;;;;;;5050078;28;20213;-88
2022/05/19 00:21:55;;;;;;;2.17;2.00;;;12.50;94.10;;;;;;5050531;28;20206;-88
2022/05/19 00:24:24;;;;;;;3.20;2.25;;;12.50;94.40;;;;;;5050496;28;20226;-88
2022/05/19 00:26:52;;;;;;;1.73;1.63;;;12.50;94.20;;;;;;5050571;28;20259;-88
2022/05/19 00:29:21;;;;;;;1.88;1.65;;;12.40;95.20;;;;;;5050586;28;20248;-89
2022/05/19 00:31:49;;;;;;;2.67;2.05;;;12.40;95.80;;;;;;5050144;28;20248;-88
2022/05/19 00:34:18;;;;;;;2.65;2.42;;;12.30;96.70;;;;;;5050755;28;20225;-88
2022/05/19 00:36:48;;;;;;;7.63;2.22;;;12.30;96.70;;;;;;5050332;28;20260;-88
2022/05/19 00:39:16;;;;;;;1.80;1.70;;;12.30;96.90;;;;;;5050314;28;20205;-88
2022/05/19 00:41:45;;;;;;;3.13;2.45;;;12.30;96.90;;;;;;5050156;28;20217;-87
2022/05/19 00:44:15;;;;;;;2.60;2.38;;;12.20;97.60;;;;;;5050118;28;20225;-87
2022/05/19 00:46:50;;;;;;;2.58;2.17;;;12.30;97.60;;;;;;5050432;28;20213;-88
2022/05/19 00:49:22;;;;;;;4.30;2.28;;;12.20;98.30;;;;;;5050284;28;20209;-89
2022/05/19 00:51:56;;;;;;;4.05;2.08;;;12.20;99.00;;;;;;5049915;28;20210;-87
2022/05/19 00:54:28;;;;;;;2.58;2.38;;;12.20;98.70;;;;;;5049924;28;20256;-88
2022/05/19 00:57:02;;;;;;;4.00;2.58;;;12.20;99.40;;;;;;5051664;28;20217;-88
2022/05/19 00:59:35;;;;;;;3.22;2.20;;;12.10;99.90;;;;;;5052403;28;20301;-88
2022/05/19 01:02:06;;;;;;;2.28;2.08;;;12.10;99.90;;;;;;5052911;28;20224;-88
2022/05/19 01:04:39;;;;;;;2.53;2.33;;;12.00;99.90;;;;;;5052307;28;20248;-88
2022/05/19 01:07:14;;;;;;;2.47;2.28;;;12.00;99.90;;;;;;5052548;28;20239;-88
2022/05/19 01:09:43;;;;;;;2.30;2.10;;;12.00;99.90;;;;;;5052484;28;20205;-88
2022/05/19 01:12:12;;;;;;;3.08;2.20;;;12.00;99.90;;;;;;5052100;28;20201;-88
2022/05/19 01:14:40;;;;;;;2.70;2.00;;;12.00;99.90;;;;;;5052376;28;20310;-88
2022/05/19 01:17:09;;;;;;;1.90;1.75;;;11.90;99.90;;;;;;5053939;28;20283;-89
2022/05/19 01:19:40;;;;;;;2.47;2.17;;;11.90;99.20;;;;;;5056518;28;20271;-89
2022/05/19 01:22:23;;;;;;;3.25;2.35;;;11.90;99.30;;;;;;5055993;28;20206;-88
2022/05/19 01:24:59;;;;;;;2.75;2.47;;;12.00;99.90;;;;;;5056698;28;20293;-89
2022/05/19 01:27:30;;;;;;;3.17;2.22;;;12.00;99.30;;;;;;5056366;28;20197;-89
2022/05/19 01:29:58;;;;;;;2.58;2.28;;;12.00;99.60;;;;;;5056421;28;20233;-89
2022/05/19 01:32:29;;;;;;;1.98;1.88;;;12.00;98.60;;;;;;5055708;28;20228;-89
2022/05/19 01:34:58;;;;;;;3.83;2.47;;;12.00;99.30;;;;;;5055968;28;20206;-89
2022/05/19 01:37:27;;;;;;;3.95;2.13;;;12.00;99.90;;;;;;5055819;28;20217;-90
2022/05/19 01:40:01;;;;;;;2.70;2.50;;;12.00;99.90;;;;;;5055507;28;20206;-89
2022/05/19 01:42:44;;;;;;;2.20;2.00;;;11.90;99.90;;;;;;5056084;28;20201;-89
2022/05/19 01:45:29;;;;;;;2.33;2.13;;;11.90;99.90;;;;;;5055877;28;20210;-89
2022/05/19 01:48:01;;;;;;;2.50;2.30;;;11.90;99.90;;;;;;5055659;28;20233;-89
2022/05/19 01:50:35;;;;;;;3.58;2.53;;;11.90;99.90;;;;;;5055389;28;20206;-88
2022/05/19 01:53:09;;;;;;;2.28;2.08;;;11.80;99.90;;;;;;5055077;28;20237;-88
2022/05/19 01:55:46;;;;;;;3.33;2.83;;;11.80;99.90;;;;;;5055786;28;20224;-88
2022/05/19 01:58:20;;;;;;;2.30;2.13;;;11.80;99.90;;;;;;5055416;28;20236;-88
2022/05/19 02:00:52;;;;;;;2.20;2.10;;;11.80;99.90;;;;;;5055481;28;20213;-87
2022/05/19 02:03:30;;;;;;;2.83;2.45;;;11.70;99.90;;;;;;5055707;28;20235;-88
2022/05/19 02:06:04;;;;;;;2.20;2.00;;;11.80;99.90;;;;;;5055222;28;20206;-88
2022/05/19 02:08:36;;;;;;;2.25;1.92;;;11.70;99.90;;;;;;5055695;28;20204;-89
2022/05/19 02:11:10;;;;;;;2.97;2.63;;;11.70;99.90;;;;;;5055397;28;20236;-88
2022/05/19 02:13:40;;;;;;;3.05;2.70;;;11.70;99.90;;;;;;5055403;28;20222;-88
2022/05/19 02:16:14;;;;;;;2.30;2.20;;;11.60;99.90;;;;;;5055392;28;20231;-88
2022/05/19 02:18:45;;;;;;;2.55;2.35;;;11.60;99.90;;;;;;5054636;28;20314;-88
2022/05/19 02:21:14;;;;;;;4.53;3.03;;;11.60;99.90;;;;;;5055356;28;20256;-87
2022/05/19 02:23:43;;;;;;;3.30;3.00;;;11.60;99.90;;;;;;5055012;28;20226;-88
2022/05/19 02:26:12;;;;;;;2.75;2.55;;;11.60;99.90;;;;;;5055156;28;20228;-88
2022/05/19 02:28:47;;;;;;;3.60;2.83;;;11.60;99.90;;;;;;5053927;28;20259;-88
2022/05/19 02:31:17;;;;;;;5.13;2.97;;;11.60;99.90;;;;;;5055392;28;20213;-88
2022/05/19 02:33:45;;;;;;;17.52;2.53;;;11.60;99.90;;;;;;5055013;28;20312;-87
2022/05/19 02:36:14;;;;;;;2.53;2.33;;;11.60;99.90;;;;;;5055055;28;20206;-88
2022/05/19 02:38:43;;;;;;;3.83;3.08;;;11.50;99.90;;;;;;5054385;28;20245;-88
2022/05/19 02:41:11;;;;;;;2.53;2.33;;;11.50;99.90;;;;;;5054326;28;20256;-88
2022/05/19 02:43:41;;;;;;;2.90;2.45;;;11.50;99.90;;;;;;5054470;28;20226;-88
2022/05/19 02:46:10;;;;;;;4.07;2.42;;;11.50;99.90;;;;;;5055119;28;20198;-88
2022/05/19 02:48:39;;;;;;;2.78;2.40;;;11.50;99.90;;;;;;5054775;28;20260;-88
2022/05/19 02:51:07;;;;;;;3.72;2.78;;;11.40;99.90;;;;;;5054110;28;20256;-88
2022/05/19 02:53:35;;;;;;;2.45;2.25;;;11.40;99.90;;;;;;5054258;28;20230;-88
2022/05/19 02:56:04;;;;;;;3.17;2.20;;;11.40;99.90;;;;;;5054562;28;20259;-88
2022/05/19 02:58:33;;;;;;;2.83;2.30;;;11.40;99.90;;;;;;5054433;28;20225;-87
2022/05/19 03:01:07;;;;;;;3.35;3.05;;;11.40;99.90;;;;;;5054110;28;20263;-88
2022/05/19 03:03:35;;;;;;;2.80;2.60;;;11.40;99.90;;;;;;5054223;28;20249;-88
2022/05/19 03:06:04;;;;;;;2.92;2.72;;;11.40;99.90;;;;;;5053975;28;20225;-88
2022/05/19 03:08:33;;;;;;;4.07;2.92;;;11.30;99.90;;;;;;5054039;28;20225;-88
2022/05/19 03:11:01;;;;;;;3.63;2.95;;;11.30;99.90;;;;;;5053769;28;20264;-88
2022/05/19 03:13:29;;;;;;;3.13;2.55;;;11.30;99.90;;;;;;5054165;28;20221;-88
2022/05/19 03:15:58;;;;;;;2.72;2.50;;;11.30;99.90;;;;;;5054011;28;20206;-88
2022/05/19 03:18:28;;;;;;;2.67;2.00;;;11.30;99.90;;;;;;5053273;28;20222;-88
2022/05/19 03:20:56;;;;;;;4.78;2.83;;;11.30;99.90;;;;;;5054051;28;20304;-88
2022/05/19 03:23:24;;;;;;;1.92;1.83;;;11.30;99.90;;;;;;5053902;28;20226;-88
2022/05/19 03:25:54;;;;;;;3.90;2.67;;;11.30;99.90;;;;;;5053791;28;20206;-88
2022/05/19 03:28:23;;;;;;;2.50;2.25;;;11.30;99.90;;;;;;5054133;28;20221;-88
2022/05/19 03:30:52;;;;;;;2.45;2.25;;;11.30;99.90;;;;;;5053611;28;20202;-87
2022/05/19 03:33:20;;;;;;;2.28;2.08;;;11.40;99.90;;;;;;5053753;28;20274;-88
2022/05/19 03:35:58;;;;;;;2.78;2.45;;;11.40;99.90;;;;;;5053779;28;20209;-87
2022/05/19 03:38:27;;;;;;;4.13;2.50;;;11.40;99.90;;;;;;5053250;28;20220;-88
2022/05/19 03:40:55;;;;;;;3.08;2.50;;;11.40;99.90;;;;;;5053430;28;20202;-88
2022/05/19 03:43:24;;;;;;;2.28;2.08;;;11.40;99.90;;;;;;5053398;28;20222;-88
2022/05/19 03:45:52;;;;;;;4.97;2.72;;;11.40;99.90;;;;;;5053600;28;20205;-87
2022/05/19 03:48:21;;;;;;;3.55;2.72;;;11.40;99.90;;;;;;5053132;28;20548;-87
2022/05/19 03:50:50;;;;;;;3.47;2.53;;;11.40;99.90;;;;;;5053213;28;20210;-88
2022/05/19 03:53:19;;;;;;;2.40;2.20;;;11.40;99.90;;;;;;5053271;28;20233;-87
2022/05/19 03:55:48;;;;;;;5.50;2.90;;;11.40;99.90;;;;;;5053497;28;20202;-87
2022/05/19 03:58:16;;;;;;;2.65;2.45;;;11.40;99.90;;;;;;5053247;28;20279;-88
2022/05/19 04:00:45;;;;;;;2.15;1.98;;;11.40;99.90;;;;;;5053166;28;20291;-87
2022/05/19 04:03:13;;;;;;;3.78;2.63;;;11.50;99.90;;;;;;5052940;28;20267;-88
2022/05/19 04:05:42;;;;;;;3.22;2.42;;;11.50;99.90;;;;;;5052873;28;20209;-87
2022/05/19 04:08:10;;;;;;;3.20;2.85;;;11.50;99.90;;;;;;5053391;28;20202;-87
2022/05/19 04:10:44;;;;;;;4.53;2.95;;;11.60;99.90;;;;;;5052726;28;20252;-87
2022/05/19 04:13:13;;;;;;;3.85;3.30;;;11.60;99.90;;;;;;5053458;28;20225;-88
2022/05/19 04:15:41;;;;;;;2.88;2.67;;;11.60;99.90;;;;;;5053445;28;20218;-87
2022/05/19 04:18:10;;;;;;;4.10;2.95;;;11.60;99.90;;;;;;5053027;28;20230;-87
2022/05/19 04:20:38;;;;;;;12.57;3.90;;;11.60;99.90;;;;;;5052755;28;20234;-87
2022/05/19 04:23:07;;;;;;;10.05;3.88;;;11.70;99.90;;;;;;5052756;28;20222;-89
2022/05/19 04:25:35;;;;;;;4.85;3.08;;;11.70;99.90;;;;;;5052841;28;20206;-88
2022/05/19 04:28:06;;;;;;;3.25;3.03;;;11.70;99.90;;;;;;5052795;28;20210;-87
2022/05/19 04:30:35;;;;;;;4.43;3.70;;;11.80;99.90;;;;;;5052706;28;20210;-88
2022/05/19 04:33:03;;;;;;;6.15;4.20;;;11.90;99.90;;;;;;5052388;28;20303;-88
2022/05/19 04:35:32;;;;;;;3.00;2.80;;;11.90;99.90;;;;;;5052856;28;20211;-87
2022/05/19 04:38:07;;;;;;;4.03;3.13;;;12.00;99.90;;;;;;5052487;28;20228;-87
2022/05/19 04:40:38;;;;;;;10.82;3.40;;;12.00;99.90;;;;;;5052528;28;20213;-87
2022/05/19 04:43:13;;;;;;;2.90;2.65;;;12.10;99.90;;;;;;5052609;28;20225;-87
2022/05/19 04:45:42;;;;;;;4.97;2.35;;;12.10;99.90;;;;;;5052788;28;20212;-87
2022/05/19 04:48:10;;;;;;;9.32;3.03;;;12.20;99.90;;;;;;5052596;28;20207;-87
2022/05/19 04:50:39;;;;;;;2.47;2.28;;;12.20;99.90;;;;;;5052185;28;20227;-87
2022/05/19 04:53:07;;;;;;;3.22;2.92;;;12.30;99.90;;;;;;5051930;28;20237;-87
2022/05/19 04:55:37;;;;;;;3.28;2.38;;;12.30;99.90;;;;;;5052387;28;20209;-88
2022/05/19 04:58:05;;;;;;;2.47;2.10;;;12.40;99.90;;;;;;5052171;28;20205;-87
2022/05/19 05:00:36;;;;;;;3.17;2.80;;;12.40;99.90;;;;;;5052702;28;20235;-88
2022/05/19 05:03:06;;;;;;;2.75;2.55;;;12.50;99.90;;;;;;5052546;28;20279;-87
2022/05/19 05:05:35;;;;;;;3.30;3.03;;;12.60;99.90;;;;;;5052287;28;20208;-88
2022/05/19 05:08:04;;;;;;;3.42;2.90;;;12.60;99.90;;;;;;5052493;28;20206;-87
2022/05/19 05:10:33;;;;;;;2.60;2.40;;;12.60;99.90;;;;;;5052111;28;20206;-88
2022/05/19 05:13:06;;;;;;;5.15;2.70;;;12.70;99.90;;;;;;5052548;28;20335;-87
2022/05/19 05:15:36;;;;;;;2.78;2.55;;;12.70;99.90;;;;;;5052613;28;20263;-88
2022/05/19 05:18:06;;;;;;;2.53;2.33;;;12.80;99.90;;;;;;5052530;28;20209;-87
2022/05/19 05:20:34;;;;;;;3.42;2.83;;;12.80;99.90;;;;;;5051206;28;20249;-87
2022/05/19 05:23:03;;;;;;;9.20;3.17;;;12.90;99.90;;;;;;5052323;28;20226;-87
2022/05/19 05:25:31;;;;;;;3.13;2.30;;;13.00;99.90;;;;;;5052122;28;20213;-87
2022/05/19 05:28:01;;;;;;;2.85;2.42;;;13.10;99.90;;;;;;5052227;28;20201;-87
2022/05/19 05:30:30;;;;;;;3.75;2.63;;;13.10;99.90;;;;;;5051958;28;20249;-87
2022/05/19 05:33:06;;;;;;;2.10;1.98;;;13.20;99.90;;;;;;5052496;28;20233;-87
2022/05/19 05:35:34;;;;;;;2.25;2.05;;;13.30;99.90;;;;;;5052148;28;20202;-87
2022/05/19 05:38:03;;;;;;;2.80;2.42;;;13.40;99.90;;;;;;5051969;28;20213;-87
2022/05/19 05:40:34;;;;;;;1.77;1.67;;;13.40;99.90;;;;;;5051525;28;20222;-87
2022/05/19 05:43:07;;;;;;;2.05;1.85;;;13.50;99.90;;;;;;5052128;28;20229;-87
2022/05/19 05:45:36;;;;;;;2.13;2.00;;;13.50;99.90;;;;;;5051407;28;20213;-82
2022/05/19 05:48:08;;;;;;;3.47;2.45;;;13.60;99.90;;;;;;5051724;28;20206;-82
2022/05/19 05:50:37;;;;;;;2.22;1.85;;;13.60;99.90;;;;;;5051513;28;20194;-82
2022/05/19 05:53:09;;;;;;;2.28;2.08;;;13.70;99.90;;;;;;5051388;28;20234;-82
2022/05/19 05:55:40;;;;;;;2.90;2.08;;;13.80;99.90;;;;;;5051237;28;20224;-82
2022/05/19 05:58:10;;;;;;;3.50;2.47;;;13.90;99.90;;;;;;5051380;28;20194;-81
2022/05/19 06:00:40;;;;;;;2.78;2.05;;;13.90;99.90;;;;;;5051223;28;20221;-82
2022/05/19 06:03:14;;;;;;;3.33;2.65;;;14.00;99.90;;;;;;5050713;28;20229;-82
2022/05/19 06:05:43;;;;;;;3.33;2.58;;;14.10;99.90;;;;;;5054789;28;20248;-82
2022/05/19 06:08:12;;;;;;;2.63;2.42;;;14.30;99.90;;;;;;5052878;28;20216;-82
2022/05/19 06:10:40;;;;;;;10.05;2.28;;;14.40;99.90;;;;;;5054913;28;20198;-80
2022/05/19 06:13:09;;;;;;;3.83;2.58;;;14.50;99.90;;;;;;5054536;28;20225;-83
2022/05/19 06:15:37;;;;;;;2.15;2.03;;;14.60;99.90;;;;;;5045234;28;20206;-82
2022/05/19 06:18:06;;;;;;;3.10;2.35;;;14.70;99.90;;;;;;5054595;28;20269;-83
2022/05/19 06:20:37;;;;;;;2.88;2.63;;;14.80;99.90;;;;;;5054142;28;20237;-82
2022/05/19 06:23:07;;;;;;;3.22;2.55;;;14.90;99.90;;;;;;5055014;28;20309;-82
2022/05/19 06:25:36;;;;;;;2.58;2.38;;;15.20;99.90;;;;;;5054834;28;20202;-82
2022/05/19 06:28:04;;;;;;;3.03;2.75;;;15.30;99.90;;;;;;5055140;28;20229;-83
2022/05/19 06:30:33;;;;;;;3.78;2.40;;;15.40;99.90;;;;;;5054436;28;20202;-82
2022/05/19 06:33:02;;;;;;;2.92;1.90;;;15.50;99.90;;;;;;5054149;28;20268;-82
2022/05/19 06:35:32;;;;;;;2.80;2.60;;;15.70;99.90;;;;;;5055433;28;20213;-82
2022/05/19 06:38:02;;;;;;;2.13;1.85;;;15.90;99.90;;;;;;5055054;28;20202;-83
2022/05/19 06:40:31;;;;;;;2.35;2.17;;;16.10;99.90;;;;;;5054724;28;20245;-82
2022/05/19 06:42:59;;;;;;;2.83;1.98;;;16.40;99.90;;;;;;5054512;28;20329;-82
2022/05/19 06:45:30;;;;;;;2.30;2.08;;;16.50;99.90;;;;;;5055079;28;20209;-82
2022/05/19 06:47:59;;;;;;;3.78;2.10;;;16.70;99.90;;;;;;5055252;28;20201;-82
2022/05/19 06:50:30;;;;;;;2.22;2.03;;;16.90;99.90;;;;;;5054789;28;20206;-82
2022/05/19 06:53:03;;;;;;;2.30;2.05;;;17.10;99.90;;;;;;5053750;28;20284;-83
2022/05/19 06:55:33;;;;;;;6.50;2.42;;;17.30;99.90;;;;;;5054511;28;20213;-83
2022/05/19 06:58:02;;;;;;;2.50;2.05;;;17.40;99.90;;;;;;5054404;28;20264;-81
2022/05/19 07:00:31;;;;;;;1.58;1.45;;;17.70;99.60;;;;;;5054004;28;20226;-81
2022/05/19 07:03:01;;;;;;;1.88;1.30;;;17.90;99.30;;;;;;5054058;28;20217;-81
2022/05/19 07:05:34;;;;;;;3.20;2.17;;;18.10;98.60;;;;;;5054428;28;20205;-81
2022/05/19 07:08:04;;;;;;;3.92;1.98;;;18.40;98.30;;;;;;5054638;28;20282;-81
2022/05/19 07:10:33;;;;;;;6.93;2.00;;;18.70;97.60;;;;;;5053820;28;20279;-81
2022/05/19 07:13:01;;;;;;;5.68;2.28;;;18.70;98.00;;;;;;5053740;28;20241;-81
2022/05/19 07:15:30;;;;;;;2.30;1.83;;;18.90;96.90;;;;;;5053152;28;20213;-81
2022/05/19 07:17:58;;;;;;;4.82;1.85;;;19.50;96.10;;;;;;5054570;28;20225;-81
2022/05/19 07:20:44;;;;;;;1.70;1.60;;;19.90;95.20;;;;;;5053676;28;20225;-81
2022/05/19 07:23:19;;;;;;;3.35;2.20;;;20.80;93.60;;;;;;5053461;28;20226;-81
2022/05/19 07:25:48;;;;;;;14.93;2.03;;;21.80;91.70;;;;;;5053816;28;20232;-81
2022/05/19 07:28:18;;;;;;;2.58;2.35;;;22.20;89.60;;;;;;5053751;28;20206;-81
2022/05/19 07:30:47;;;;;;;5.03;1.77;;;22.70;86.10;;;;;;5053610;28;20198;-81
2022/05/19 07:33:16;;;;;;;2.10;2.00;;;22.70;84.60;;;;;;5053171;28;20236;-81
2022/05/19 07:35:46;;;;;;;2.67;1.80;;;23.00;82.30;;;;;;5053599;28;20290;-81
2022/05/19 07:38:17;;;;;;;3.90;2.88;;;23.30;80.90;;;;;;5053839;28;20233;-81
2022/05/19 07:40:46;;;;;;;2.33;1.92;;;24.70;78.40;;;;;;5052951;28;20308;-81
2022/05/19 07:46:01;;;;;;;3.65;2.00;;;26.80;69.30;;;;;;5053972;28;20293;-81
2022/05/19 07:48:29;;;;;;;1.73;1.58;;;27.40;64.80;;;;;;5053772;28;20214;-81
2022/05/19 07:50:57;;;;;;;2.60;1.77;;;27.80;61.60;;;;;;5052442;28;20222;-81
2022/05/19 07:53:27;;;;;;;2.88;1.60;;;28.30;59.10;;;;;;5053340;28;20233;-81
2022/05/19 07:55:56;;;;;;;1.45;1.35;;;28.60;56.80;;;;;;5053441;28;20213;-81
2022/05/19 07:58:24;;;;;;;2.00;1.75;;;28.00;56.10;;;;;;5053468;28;20209;-81
2022/05/19 08:00:53;;;;;;;1.60;1.50;;;27.90;55.80;;;;;;5052559;28;20233;-81
2022/05/19 08:03:23;;;;;;;1.55;1.45;;;28.50;57.50;;;;;;5052671;28;20241;-82
2022/05/19 08:05:53;;;;;;;2.28;1.90;;;29.40;54.10;;;;;;5052956;28;20284;-82
2022/05/19 08:08:21;;;;;;;2.40;1.88;;;29.80;51.40;;;;;;5053255;28;20229;-81
2022/05/19 08:10:54;;;;;;;3.05;1.92;;;30.00;51.30;;;;;;5052199;28;20214;-82
2022/05/19 08:16:09;;;;;;;5.13;1.98;;;29.80;50.80;;;;;;5050386;28;20205;-82
2022/05/19 08:18:37;;;;;;;4.68;1.92;;;29.50;50.20;;;;;;5050903;28;20263;-82
2022/05/19 08:21:11;;;;;;;3.05;1.90;;;29.50;52.00;;;;;;5049893;28;20226;-82
2022/05/19 08:23:41;;;;;;;1.58;1.48;;;30.40;48.70;;;;;;5050746;28;20221;-82
2022/05/19 08:26:12;;;;;;;1.58;1.48;;;30.70;48.00;;;;;;5050007;28;20241;-82
2022/05/19 08:28:42;;;;;;;3.05;1.92;;;30.90;48.40;;;;;;5050562;28;20271;-82
2022/05/19 08:31:13;;;;;;;1.80;1.70;;;29.90;48.80;;;;;;5049706;28;20218;-82
2022/05/19 08:33:43;;;;;;;1.60;1.50;;;29.60;49.10;;;;;;5050749;28;20308;-82
2022/05/19 08:36:12;;;;;;;2.08;1.67;;;30.00;48.40;;;;;;5050034;28;20266;-82
2022/05/19 08:38:42;;;;;;;2.33;1.85;;;30.90;48.20;;;;;;5050622;28;20240;-82
2022/05/19 08:41:18;;;;;;;1.98;1.77;;;31.60;47.00;;;;;;5049262;28;20251;-82
2022/05/19 08:43:51;;;;;;;1.98;1.80;;;31.20;45.90;;;;;;5050460;28;20229;-83
2022/05/19 08:46:22;;;;;;;2.13;1.80;;;31.00;47.00;;;;;;5050569;28;20225;-83
2022/05/19 08:48:56;;;;;;;2.00;1.80;;;31.20;45.80;;;;;;5050348;28;20219;-82
2022/05/19 08:51:30;;;;;;;1.85;1.67;;;31.50;45.80;;;;;;5049809;28;20255;-83
2022/05/19 08:54:04;;;;;;;3.40;1.83;;;31.80;45.90;;;;;;5050465;28;20240;-83
2022/05/19 08:56:40;;;;;;;2.10;1.95;;;32.80;44.40;;;;;;5050659;28;20217;-82
2022/05/19 08:59:29;;;;;;;6.18;2.35;;;33.10;44.50;;;;;;5049933;28;20286;-83
2022/05/19 09:02:05;;;;;;;3.83;1.73;;;33.70;43.10;;;;;;5049235;28;20224;-83
2022/05/19 09:04:50;;;;;;;2.63;2.08;;;33.90;43.80;;;;;;5050516;28;20244;-83
2022/05/19 09:10:37;;;;;;;2.30;1.48;;;32.70;42.60;;;;;;5049955;28;20233;-83
2022/05/19 09:13:16;;;;;;;1.98;1.88;;;32.20;44.00;;;;;;5048938;28;20217;-83
2022/05/19 09:15:46;;;;;;;1.77;1.67;;;31.90;44.10;;;;;;5049979;28;20220;-83
2022/05/19 09:18:16;;;;;;;13.13;1.90;;;32.20;44.20;;;;;;5049599;28;20213;-83
2022/05/19 09:20:51;;;;;;;3.55;1.73;;;32.10;42.80;;;;;;5049284;28;20228;-83
2022/05/19 09:23:20;;;;;;;2.08;1.88;;;31.90;43.40;;;;;;5050408;28;20225;-83
2022/05/19 09:25:54;;;;;;;1.60;1.50;;;31.80;43.40;;;;;;5050003;28;20221;-83
2022/05/19 09:28:24;;;;;;;2.03;1.48;;;31.80;43.40;;;;;;5050312;28;20263;-83
2022/05/19 09:30:55;;;;;;;1.95;1.77;;;31.90;43.40;;;;;;5050130;28;20270;-83
2022/05/19 09:33:31;;;;;;;2.78;2.17;;;32.10;42.60;;;;;;5050027;28;20271;-83
2022/05/19 09:36:01;;;;;;;2.25;1.80;;;31.50;43.50;;;;;;5049957;28;20205;-84
2022/05/19 09:38:33;;;;;;;1.90;1.80;;;31.20;44.10;;;;;;5051826;28;20213;-83
2022/05/19 09:41:05;;;;;;;6.97;1.70;;;31.00;43.40;;;;;;5052682;28;20221;-83
2022/05/19 09:43:38;;;;;;;2.40;1.77;;;31.00;44.20;;;;;;5055451;28;20236;-84
2022/05/19 09:46:13;;;;;;;2.75;1.92;;;31.00;43.40;;;;;;5056432;28;20206;-83
2022/05/19 09:48:45;;;;;;;1.73;1.52;;;31.00;44.30;;;;;;5055753;28;20254;-83
2022/05/19 09:51:15;;;;;;;1.70;1.60;;;30.90;44.10;;;;;;5054952;28;20218;-83
2022/05/19 09:53:50;;;;;;;3.65;1.42;;;30.80;44.00;;;;;;5055643;28;20240;-83
2022/05/19 09:56:23;;;;;;;2.15;1.90;;;30.80;45.40;;;;;;5055978;28;20298;-83
2022/05/19 09:59:04;;;;;;;2.88;2.08;;;31.00;44.80;;;;;;5055677;28;20209;-84
2022/05/19 10:01:38;;;;;;;2.10;1.90;;;31.40;43.90;;;;;;5054877;28;20213;-83
2022/05/19 10:04:09;;;;;;;6.25;2.13;;;31.60;44.10;;;;;;5055287;28;20224;-83
2022/05/19 10:06:47;;;;;;;2.47;1.80;;;31.90;43.70;;;;;;5055040;28;20204;-83
2022/05/19 10:09:20;;;;;;;1.60;1.50;;;32.10;43.00;;;;;;5055381;28;20201;-84
2022/05/19 10:11:50;;;;;;;3.03;2.00;;;32.30;42.80;;;;;;5054651;28;20197;-81
2022/05/19 10:14:26;;;;;;;5.05;1.98;;;32.30;42.20;;;;;;5055366;28;20267;-80
2022/05/19 10:17:05;;;;;;;3.00;1.77;;;32.10;42.70;;;;;;5055175;28;20208;-80
2022/05/19 10:19:42;;;;;;;3.10;1.67;;;31.50;43.00;;;;;;5055391;28;20212;-80
2022/05/19 10:22:28;;;;;;;3.97;1.95;;;31.50;45.00;;;;;;5053822;28;20285;-81
2022/05/19 10:25:16;;;;;;;1.73;1.58;;;32.10;43.30;;;;;;5055139;28;20205;-81
2022/05/19 10:31:04;;;;;;;1.85;1.70;;;31.50;44.20;;;;;;5054217;28;20229;-81
2022/05/19 10:34:14;;;;;;;3.20;2.05;;;31.70;43.20;;;;;;5034961;28;20233;-81
2022/05/19 10:36:50;;;;;;;2.47;1.95;;;31.90;42.90;;;;;;5023428;28;20284;-81
2022/05/19 10:39:55;;;;;;;3.22;1.70;;;32.00;42.40;;;;;;5034871;28;20232;-81
2022/05/19 10:42:32;;;;;;;1.73;1.63;;;32.30;43.70;;;;;;5049367;28;20288;-80
2022/05/19 10:45:15;;;;;;;1.83;1.50;;;32.50;42.40;;;;;;5054490;28;20219;-83
2022/05/19 10:47:57;;;;;;;2.45;2.25;;;32.60;42.70;;;;;;5054867;28;20265;-81
2022/05/19 10:50:29;;;;;;;2.25;1.80;;;32.60;42.70;;;;;;5053154;28;20252;-81
2022/05/19 10:53:26;;;;;;;3.05;2.10;;;32.50;41.50;;;;;;5053897;28;20313;-81
2022/05/19 10:56:14;;;;;;;3.25;1.63;;;32.30;42.40;;;;;;5046927;28;20244;-81
2022/05/19 10:58:57;;;;;;;1.67;1.58;;;32.50;42.80;;;;;;5054155;28;20242;-81
2022/05/19 11:01:43;;;;;;;2.08;1.50;;;33.10;42.70;;;;;;5052808;28;20198;-81
2022/05/19 11:04:34;;;;;;;1.60;1.50;;;33.00;41.40;;;;;;5053683;28;20244;-81
2022/05/19 11:07:14;;;;;;;2.05;1.95;;;32.50;41.50;;;;;;5053992;28;20209;-82
2022/05/19 11:09:50;;;;;;;2.35;2.15;;;32.10;42.10;;;;;;5053214;28;20240;-81
2022/05/19 11:12:29;;;;;;;2.13;1.60;;;32.10;42.80;;;;;;5052661;28;20291;-82
2022/05/19 11:15:12;;;;;;;3.63;2.10;;;32.40;42.50;;;;;;5053845;28;20295;-81
2022/05/19 11:17:57;;;;;;;2.20;2.00;;;32.60;41.30;;;;;;5054213;28;20316;-81
2022/05/19 11:20:32;;;;;;;1.92;1.77;;;32.50;41.20;;;;;;5053706;28;20285;-81
2022/05/19 11:23:06;;;;;;;2.95;1.92;;;32.60;41.30;;;;;;5052500;28;20221;-81
2022/05/19 11:28:35;;;;;;;2.45;1.98;;;32.60;41.20;;;;;;5054277;28;20210;-81
2022/05/19 11:31:10;;;;;;;1.65;1.55;;;32.60;41.60;;;;;;5052573;28;20221;-81
2022/05/19 11:33:41;;;;;;;2.08;1.63;;;32.40;41.40;;;;;;5053412;28;20313;-81
2022/05/19 11:36:17;;;;;;;2.50;2.10;;;32.00;41.10;;;;;;5053299;28;20236;-81
2022/05/19 11:38:53;;;;;;;3.55;1.63;;;31.90;41.40;;;;;;5050977;28;20275;-80
2022/05/19 11:41:25;;;;;;;1.60;1.50;;;31.60;41.50;;;;;;5052206;28;20217;-81
2022/05/19 11:44:00;;;;;;;2.95;1.55;;;31.50;42.60;;;;;;5053244;28;20221;-81
2022/05/19 11:46:34;;;;;;;2.65;1.60;;;31.60;42.20;;;;;;5052884;28;20259;-81
2022/05/19 11:55:17;;;;;;;2.35;1.75;;;32.10;40.90;;;;;;5040618;28;20309;-81
2022/05/19 11:57:52;;;;;;;12.00;1.90;;;32.00;41.70;;;;;;5041405;28;20228;-81
2022/05/19 12:00:23;;;;;;;2.78;1.80;;;32.20;40.90;;;;;;5041652;28;20304;-81
2022/05/19 12:02:58;;;;;;;2.95;1.70;;;32.40;41.30;;;;;;5039098;28;20237;-81
2022/05/19 12:05:31;;;;;;;1.45;1.35;;;32.40;41.40;;;;;;5041150;28;20213;-80
2022/05/19 12:08:12;;;;;;;9.00;1.85;;;32.30;41.40;;;;;;5041252;28;20238;-80
2022/05/19 12:10:44;;;;;;;2.72;1.90;;;32.30;40.90;;;;;;5040372;28;20213;-80
2022/05/19 12:13:12;;;;;;;2.30;1.90;;;32.30;40.80;;;;;;5039579;28;20405;-80
2022/05/19 12:15:52;;;;;;;2.45;1.80;;;32.00;39.80;;;;;;5040771;28;20237;-80
2022/05/19 12:18:43;;;;;;;2.97;2.20;;;31.60;40.40;;;;;;5040123;28;20232;-80
2022/05/19 12:21:51;;;;;;;2.40;2.13;;;31.30;40.70;;;;;;5039280;28;20338;-80
2022/05/19 12:24:27;;;;;;;2.65;1.70;;;31.30;41.60;;;;;;5039226;28;20233;-80
2022/05/19 12:27:00;;;;;;;2.08;1.88;;;31.50;40.90;;;;;;5040144;28;20248;-80
2022/05/19 12:29:39;;;;;;;1.33;1.23;;;31.50;41.00;;;;;;5039620;28;20241;-80
2022/05/19 12:32:29;;;;;;;1.90;1.70;;;31.70;40.20;;;;;;5038210;28;20263;-80
2022/05/19 12:35:02;;;;;;;1.92;1.70;;;31.50;40.40;;;;;;5040739;28;20210;-80
2022/05/19 12:37:50;;;;;;;1.58;1.40;;;31.70;41.00;;;;;;5040732;28;20233;-81
2022/05/19 12:40:51;;;;;;;2.10;1.40;;;31.70;40.60;;;;;;5040594;28;20210;-80
2022/05/19 12:43:30;;;;;;;1.92;1.75;;;31.70;40.10;;;;;;5039186;28;20320;-81
2022/05/19 12:46:01;;;;;;;2.00;1.73;;;31.40;39.70;;;;;;5040385;28;20304;-80
2022/05/19 12:48:52;;;;;;;3.28;2.05;;;31.40;40.40;;;;;;5040395;28;20214;-81
2022/05/19 12:51:46;;;;;;;2.85;1.75;;;31.50;41.20;;;;;;5034800;28;20202;-81
2022/05/19 12:54:14;;;;;;;5.15;1.92;;;31.10;40.20;;;;;;5038798;28;20265;-81
2022/05/19 12:57:01;;;;;;;1.60;1.50;;;31.10;41.00;;;;;;5039552;28;20228;-81
2022/05/19 12:59:57;;;;;;;1.60;1.50;;;30.80;41.00;;;;;;5039710;28;20237;-81
2022/05/19 13:02:32;;;;;;;1.67;1.45;;;30.60;41.20;;;;;;4992825;28;20222;-81
2022/05/19 13:05:06;;;;;;;2.15;1.58;;;30.70;41.90;;;;;;5040265;28;20271;-81
2022/05/19 13:07:38;;;;;;;2.97;1.60;;;30.70;40.60;;;;;;5039898;28;20234;-81
2022/05/19 13:10:14;;;;;;;1.67;1.52;;;30.70;40.90;;;;;;5039938;28;20217;-81
2022/05/19 13:12:52;;;;;;;3.00;1.70;;;30.40;40.80;;;;;;5037992;28;20227;-81
2022/05/19 13:15:26;;;;;;;2.85;1.95;;;30.40;41.30;;;;;;5047574;28;20220;-81
2022/05/19 13:17:57;;;;;;;1.65;1.55;;;30.00;41.40;;;;;;5050026;28;20209;-83
2022/05/19 13:20:30;;;;;;;1.85;1.75;;;29.70;41.10;;;;;;5044551;28;20237;-85
2022/05/19 13:23:21;;;;;;;2.35;1.90;;;29.30;42.30;;;;;;5044332;28;20237;-84
2022/05/19 13:25:52;;;;;;;5.75;2.03;;;29.40;41.80;;;;;;5043069;28;20291;-84
2022/05/19 13:31:22;;;;;;;2.05;1.73;;;29.40;42.20;;;;;;5044146;28;20247;-84
2022/05/19 13:33:52;;;;;;;3.55;1.90;;;29.60;41.50;;;;;;5044810;28;20225;-85
2022/05/19 13:36:30;;;;;;;4.47;1.30;;;29.50;41.40;;;;;;5043582;28;20456;-86
2022/05/19 13:39:11;;;;;;;3.67;2.00;;;29.60;41.50;;;;;;5044365;28;20206;-85